This is the latest recevied weather packets stored in our database for station/object DG0LFL-13. If no packets are shown the sender has not sent any weather packets the latest 1 day(s).
| Time | Temp. | Humidity | Pressure | Rain* | Wind** | Luminosity | Snow |
|---|---|---|---|---|---|---|---|
| 1778105412 | 12.78° C | 76% | 1012.3 hPa | - | - | - | - |
| 1778103605 | 12.78° C | 76% | 1012.3 hPa | - | - | - | - |
| 1778101799 | 13.33° C | 76% | 1012.3 hPa | - | - | - | - |
| 1778101197 | 13.33° C | 76% | 1012.4 hPa | - | - | - | - |
| 1778100595 | 13.33° C | 76% | 1012.5 hPa | - | - | - | - |
| 1778099391 | 13.33° C | 76% | 1012.2 hPa | - | - | - | - |
| 1778098789 | 13.33° C | 76% | 1012.2 hPa | - | - | - | - |
| 1778097585 | 13.33° C | 76% | 1011.8 hPa | - | - | - | - |
| 1778096381 | 13.33° C | 75% | 1011.7 hPa | - | - | - | - |
| 1778095779 | 13.33° C | 75% | 1011.5 hPa | - | - | - | - |
| 1778094576 | 13.89° C | 75% | 1011.2 hPa | - | - | - | - |
| 1778084341 | 16.67° C | 74% | 1010.4 hPa | - | - | - | - |
| 1778083739 | 16.67° C | 74% | 1010.4 hPa | - | - | - | - |
| 1778079525 | 17.22° C | 75% | 1010.4 hPa | - | - | - | - |
| 1778078923 | 17.22° C | 76% | 1010.4 hPa | - | - | - | - |
| 1778078321 | 16.67° C | 76% | 1010.4 hPa | - | - | - | - |
| 1778077719 | 16.67° C | 76% | 1010.5 hPa | - | - | - | - |
| 1778077117 | 16.11° C | 77% | 1010.4 hPa | - | - | - | - |
| 1778076515 | 16.11° C | 77% | 1010.6 hPa | - | - | - | - |
| 1778075913 | 15.56° C | 77% | 1010.6 hPa | - | - | - | - |
| 1778075311 | 15.56° C | 77% | 1010.7 hPa | - | - | - | - |
| 1778074709 | 15.56° C | 77% | 1010.9 hPa | - | - | - | - |
| 1778074107 | 15.56° C | 77% | 1011 hPa | - | - | - | - |
| 1778073505 | 16.11° C | 77% | 1010.7 hPa | - | - | - | - |
| 1778069893 | 15° C | 78% | 1010.5 hPa | - | - | - | - |
* Rain since midnight (hover to see other rain measurements)
** Current wind speed in m/s (hover to see current wind gust speed)